createdAt,value
2022-12-25T00:01:39.064Z,4.65
2022-12-25T00:04:05.682Z,4.57
2022-12-25T00:06:32.206Z,4.50
2022-12-25T00:08:58.780Z,4.82
2022-12-25T00:11:25.308Z,4.22
2022-12-25T00:13:51.790Z,4.55
2022-12-25T00:16:24.146Z,5.05
2022-12-25T00:18:51.566Z,5.13
2022-12-25T00:21:18.997Z,4.38
2022-12-25T00:23:45.470Z,4.63
2022-12-25T00:26:16.240Z,3.90
2022-12-25T00:28:43.037Z,4.47
2022-12-25T00:31:15.515Z,4.40
2022-12-25T00:33:44.840Z,3.78
2022-12-25T00:36:13.068Z,4.03
2022-12-25T00:38:40.578Z,4.47
2022-12-25T00:41:16.199Z,3.75
2022-12-25T00:43:43.162Z,4.00
2022-12-25T00:46:11.957Z,3.97
2022-12-25T00:48:39.293Z,4.50
2022-12-25T00:51:10.475Z,5.00
2022-12-25T00:53:36.890Z,3.88
2022-12-25T00:56:05.807Z,4.30
2022-12-25T00:58:34.341Z,4.30
2022-12-25T01:01:01.066Z,3.65
2022-12-25T01:03:29.767Z,3.95
2022-12-25T01:06:01.462Z,3.85
2022-12-25T01:08:30.376Z,3.70
2022-12-25T01:11:02.899Z,4.00
2022-12-25T01:13:30.109Z,3.70
2022-12-25T01:15:56.841Z,3.92
2022-12-25T01:18:25.256Z,3.70
2022-12-25T01:20:51.876Z,3.80
2022-12-25T01:23:18.320Z,3.73
2022-12-25T01:25:44.782Z,3.47
2022-12-25T01:28:11.251Z,4.32
2022-12-25T01:30:37.712Z,4.03
2022-12-25T01:33:04.283Z,3.88
2022-12-25T01:35:30.812Z,4.25
2022-12-25T01:37:57.345Z,4.25
2022-12-25T01:40:23.841Z,4.32
2022-12-25T01:42:50.375Z,4.22
2022-12-25T01:45:40.918Z,4.35
2022-12-25T01:48:13.146Z,4.05
2022-12-25T01:50:42.799Z,4.15
2022-12-25T01:53:09.532Z,4.30
2022-12-25T01:55:36.908Z,4.10
2022-12-25T01:58:04.673Z,4.03
2022-12-25T02:00:33.059Z,4.15
2022-12-25T02:02:59.996Z,3.58
2022-12-25T02:05:32.194Z,3.53
2022-12-25T02:08:02.903Z,4.22
2022-12-25T02:10:29.378Z,3.85
2022-12-25T02:12:56.225Z,3.85
2022-12-25T02:15:29.957Z,3.95
2022-12-25T02:18:21.817Z,4.53
2022-12-25T02:21:10.397Z,4.63
2022-12-25T02:23:54.168Z,4.25
2022-12-25T02:26:42.395Z,4.22
2022-12-25T02:29:25.359Z,4.13
2022-12-25T02:32:05.394Z,4.13
2022-12-25T02:34:46.270Z,3.92
2022-12-25T02:37:18.704Z,3.78
2022-12-25T02:40:00.595Z,4.22
2022-12-25T02:42:57.707Z,3.83
2022-12-25T02:48:33.112Z,3.97
2022-12-25T02:51:20.931Z,3.70
2022-12-25T02:54:08.997Z,4.00
2022-12-25T02:56:58.444Z,3.40
2022-12-25T02:59:46.190Z,3.45
2022-12-25T03:02:33.484Z,3.80
2022-12-25T03:05:22.852Z,3.42
2022-12-25T03:07:49.883Z,3.78
2022-12-25T03:10:36.585Z,3.45
2022-12-25T03:13:16.090Z,3.08
2022-12-25T03:16:01.197Z,3.67
2022-12-25T03:18:31.216Z,3.55
2022-12-25T03:21:17.298Z,3.47
2022-12-25T03:24:23.230Z,3.58
2022-12-25T03:26:55.692Z,3.60
2022-12-25T03:29:41.784Z,3.90
2022-12-25T03:32:38.423Z,3.63
2022-12-25T03:35:23.941Z,3.30
2022-12-25T03:38:52.099Z,3.50
2022-12-25T03:41:42.845Z,3.17
2022-12-25T03:44:43.158Z,3.20
2022-12-25T03:47:48.510Z,3.50
2022-12-25T03:50:45.868Z,3.00
2022-12-25T03:53:37.381Z,3.22
2022-12-25T03:56:23.366Z,3.10
2022-12-25T03:59:11.073Z,3.15
2022-12-25T04:01:56.067Z,3.20
2022-12-25T04:04:41.063Z,3.42
2022-12-25T04:07:26.191Z,3.28
2022-12-25T04:10:11.222Z,3.38
2022-12-25T04:12:56.048Z,2.92
2022-12-25T04:15:41.096Z,3.13
2022-12-25T04:18:26.176Z,3.13
2022-12-25T04:21:10.972Z,3.00
2022-12-25T04:23:55.805Z,3.17
2022-12-25T04:26:40.741Z,2.72
2022-12-25T04:29:25.715Z,2.80
2022-12-25T04:32:10.524Z,3.45
2022-12-25T04:34:55.857Z,3.05
2022-12-25T04:37:23.280Z,3.00
2022-12-25T04:39:50.019Z,3.45
2022-12-25T04:42:17.389Z,2.67
2022-12-25T04:44:43.834Z,3.97
2022-12-25T04:47:11.782Z,3.10
2022-12-25T04:49:38.641Z,2.90
2022-12-25T04:52:05.110Z,2.85
2022-12-25T04:54:31.588Z,3.17
2022-12-25T04:56:57.991Z,2.75
2022-12-25T04:59:24.465Z,2.67
2022-12-25T05:01:50.982Z,3.35
2022-12-25T05:04:17.478Z,3.05
2022-12-25T05:06:43.989Z,2.90
2022-12-25T05:11:37.882Z,3.00
2022-12-25T05:14:04.368Z,3.00
2022-12-25T05:16:31.050Z,3.50
2022-12-25T05:18:57.773Z,3.60
2022-12-25T05:21:24.231Z,3.33
2022-12-25T05:23:52.407Z,2.78
2022-12-25T05:26:22.511Z,4.30
2022-12-25T05:28:49.591Z,3.70
2022-12-25T05:31:16.838Z,4.00
2022-12-25T05:33:43.758Z,4.05
2022-12-25T05:36:11.436Z,4.93
2022-12-25T05:41:05.518Z,4.15
2022-12-25T05:43:32.142Z,4.30
2022-12-25T05:45:58.961Z,4.07
2022-12-25T05:48:25.433Z,4.88
2022-12-25T05:50:52.080Z,5.20
2022-12-25T05:53:18.533Z,4.33
2022-12-25T05:55:45.014Z,3.95
2022-12-25T05:58:13.471Z,4.10
2022-12-25T06:00:43.294Z,4.00
2022-12-25T06:03:09.988Z,3.78
2022-12-25T06:05:38.344Z,3.83
2022-12-25T06:08:04.957Z,4.35
2022-12-25T06:10:31.416Z,4.30
2022-12-25T06:12:57.948Z,4.03
2022-12-25T06:15:24.532Z,4.70
2022-12-25T06:17:50.973Z,4.13
2022-12-25T06:20:17.546Z,4.43
2022-12-25T06:22:44.075Z,4.22
2022-12-25T06:25:10.609Z,4.18
2022-12-25T06:27:37.328Z,4.18
2022-12-25T06:30:04.920Z,4.10
2022-12-25T06:34:58.133Z,5.15
2022-12-25T06:37:24.631Z,3.90
2022-12-25T06:39:51.137Z,3.67
2022-12-25T06:42:17.773Z,4.85
2022-12-25T06:44:44.786Z,4.13
2022-12-25T06:47:11.517Z,4.20
2022-12-25T06:49:38.040Z,3.97
2022-12-25T06:52:04.599Z,4.25
2022-12-25T06:54:31.114Z,5.32
2022-12-25T06:56:57.609Z,5.25
2022-12-25T06:59:24.120Z,4.60
2022-12-25T07:01:55.437Z,3.90
2022-12-25T07:04:33.605Z,5.43
2022-12-25T07:07:06.094Z,5.47
2022-12-25T07:09:35.770Z,4.68
2022-12-25T07:12:08.164Z,5.63
2022-12-25T07:14:34.722Z,4.75
2022-12-25T07:17:01.229Z,5.25
2022-12-25T07:19:27.907Z,4.38
2022-12-25T07:21:54.368Z,4.90
2022-12-25T07:24:22.117Z,4.22
2022-12-25T07:26:49.723Z,4.93
2022-12-25T07:31:43.095Z,4.38
2022-12-25T07:34:09.737Z,4.07
2022-12-25T07:36:36.280Z,4.47
2022-12-25T07:39:02.931Z,3.90
2022-12-25T07:41:29.413Z,3.90
2022-12-25T07:43:55.937Z,4.85
2022-12-25T07:46:23.197Z,4.03
2022-12-25T07:48:50.071Z,3.80
2022-12-25T07:51:16.851Z,4.20
2022-12-25T07:53:43.430Z,4.57
2022-12-25T07:56:18.673Z,4.28
2022-12-25T07:58:46.277Z,4.68
2022-12-25T08:03:58.957Z,3.80
2022-12-25T08:06:29.890Z,5.10
2022-12-25T08:08:58.294Z,5.35
2022-12-25T08:11:24.795Z,5.60
2022-12-25T08:13:51.403Z,7.18
2022-12-25T08:16:17.902Z,6.70
2022-12-25T08:18:44.482Z,5.53
2022-12-25T08:21:14.035Z,6.45
2022-12-25T08:23:43.162Z,6.30
2022-12-25T08:26:14.076Z,6.85
2022-12-25T08:28:40.768Z,7.35
2022-12-25T08:31:25.694Z,9.87
2022-12-25T08:33:54.812Z,12.30
2022-12-25T08:36:22.334Z,9.05
2022-12-25T08:41:16.261Z,8.10
2022-12-25T08:43:43.305Z,8.23
2022-12-25T08:46:10.412Z,8.75
2022-12-25T08:48:37.343Z,8.20
2022-12-25T08:51:04.851Z,5.82
2022-12-25T08:53:31.524Z,5.07
2022-12-25T08:56:04.515Z,5.60
2022-12-25T08:58:31.217Z,5.50
2022-12-25T09:00:57.717Z,7.43
2022-12-25T09:03:24.744Z,7.97
2022-12-25T09:05:52.139Z,9.30
2022-12-25T09:08:19.772Z,9.77
2022-12-25T09:13:12.889Z,7.40
2022-12-25T09:15:39.944Z,7.38
2022-12-25T09:18:06.747Z,6.07
2022-12-25T09:20:33.328Z,6.40
2022-12-25T09:22:59.759Z,6.50
2022-12-25T09:25:26.135Z,6.10
2022-12-25T09:27:52.531Z,5.60
2022-12-25T09:30:18.952Z,5.30
2022-12-25T09:32:45.316Z,5.40
2022-12-25T09:35:13.899Z,4.53
2022-12-25T09:37:40.275Z,4.97
2022-12-25T09:40:07.661Z,4.40
2022-12-25T09:42:36.886Z,4.47
2022-12-25T09:45:32.921Z,4.35
2022-12-25T09:47:59.274Z,4.90
2022-12-25T09:50:48.475Z,4.55
2022-12-25T09:53:20.666Z,4.57
2022-12-25T09:56:01.593Z,4.90
2022-12-25T09:58:29.770Z,4.75
2022-12-25T10:01:19.419Z,4.80
2022-12-25T10:03:56.996Z,4.60
2022-12-25T10:06:34.356Z,4.20
2022-12-25T10:12:18.740Z,4.25
2022-12-25T10:15:17.689Z,4.30
2022-12-25T10:18:00.718Z,4.10
2022-12-25T10:20:51.361Z,4.43
2022-12-25T10:23:45.884Z,4.18
2022-12-25T10:26:21.503Z,4.53
2022-12-25T10:29:13.613Z,4.95
2022-12-25T10:31:41.695Z,5.40
2022-12-25T10:34:10.913Z,5.50
2022-12-25T10:36:37.313Z,5.20
2022-12-25T10:39:04.001Z,5.20
2022-12-25T10:41:47.597Z,4.60
2022-12-25T10:44:16.119Z,5.18
2022-12-25T10:46:48.818Z,4.88
2022-12-25T10:49:17.076Z,4.82
2022-12-25T10:51:43.930Z,4.40
2022-12-25T10:54:28.587Z,4.40
2022-12-25T10:57:10.171Z,4.72
2022-12-25T10:59:49.723Z,4.10
2022-12-25T11:02:26.867Z,4.20
2022-12-25T11:05:37.878Z,4.10
2022-12-25T11:08:19.539Z,3.83
2022-12-25T11:10:53.120Z,4.00
2022-12-25T11:13:24.971Z,4.63
2022-12-25T11:16:03.451Z,3.88
2022-12-25T11:21:19.407Z,3.97
2022-12-25T11:23:49.100Z,4.22
2022-12-25T11:26:17.843Z,4.03
2022-12-25T11:28:45.671Z,4.35
2022-12-25T11:31:16.232Z,4.40
2022-12-25T11:33:55.016Z,4.18
2022-12-25T11:36:38.951Z,4.20
2022-12-25T11:39:25.778Z,4.15
2022-12-25T11:42:00.781Z,4.38
2022-12-25T11:44:45.450Z,4.70
2022-12-25T11:47:28.339Z,4.10
2022-12-25T11:50:01.508Z,4.22
2022-12-25T11:52:34.786Z,4.68
2022-12-25T11:55:15.261Z,5.05
2022-12-25T11:57:44.604Z,5.32
2022-12-25T12:00:14.685Z,4.53
2022-12-25T12:02:51.268Z,4.63
2022-12-25T12:05:23.249Z,4.53
2022-12-25T12:07:57.816Z,4.22
2022-12-25T12:10:50.815Z,4.25
2022-12-25T12:13:28.387Z,4.30
2022-12-25T12:15:54.825Z,4.43
2022-12-25T12:18:28.451Z,4.30
2022-12-25T12:21:17.334Z,3.83
2022-12-25T12:24:02.977Z,4.13
2022-12-25T12:26:36.729Z,5.72
2022-12-25T12:29:05.891Z,5.05
2022-12-25T12:31:41.166Z,4.45
2022-12-25T12:34:21.590Z,5.55
2022-12-25T12:36:49.766Z,5.55
2022-12-25T12:39:26.870Z,5.32
2022-12-25T12:41:53.494Z,5.68
2022-12-25T12:44:23.800Z,6.20
2022-12-25T12:46:55.992Z,5.57
2022-12-25T12:49:28.298Z,6.38
2022-12-25T12:52:07.417Z,6.68
2022-12-25T12:54:59.827Z,5.93
2022-12-25T12:57:29.451Z,6.47
2022-12-25T12:59:58.979Z,6.32
2022-12-25T13:02:32.307Z,5.90
2022-12-25T13:05:03.735Z,6.63
2022-12-25T13:07:43.864Z,6.15
2022-12-25T13:10:38.730Z,6.97
2022-12-25T13:13:12.432Z,6.03
2022-12-25T13:15:39.067Z,6.28
2022-12-25T13:18:13.220Z,6.33
2022-12-25T13:20:56.833Z,6.07
2022-12-25T13:23:30.256Z,6.13
2022-12-25T13:26:00.564Z,5.88
2022-12-25T13:28:31.643Z,5.80
2022-12-25T13:31:17.085Z,5.60
2022-12-25T13:33:52.283Z,5.72
2022-12-25T13:36:18.960Z,6.28
2022-12-25T13:38:47.329Z,5.80
2022-12-25T13:41:38.140Z,5.80
2022-12-25T13:44:14.425Z,5.32
2022-12-25T13:46:40.797Z,4.97
2022-12-25T13:49:14.792Z,5.25
2022-12-25T13:51:41.157Z,4.90
2022-12-25T13:54:11.577Z,4.55
2022-12-25T13:56:43.182Z,5.18
2022-12-25T13:59:15.955Z,4.85
2022-12-25T14:01:43.946Z,5.18
2022-12-25T14:04:16.482Z,5.07
2022-12-25T14:06:42.956Z,5.57
2022-12-25T14:09:11.191Z,4.85
2022-12-25T14:11:39.891Z,5.25
2022-12-25T14:14:24.281Z,5.50
2022-12-25T14:16:54.792Z,5.63
2022-12-25T14:19:27.522Z,5.50
2022-12-25T14:21:59.195Z,6.25
2022-12-25T14:24:27.345Z,6.03
2022-12-25T14:27:01.791Z,5.45
2022-12-25T14:29:38.703Z,6.25
2022-12-25T14:32:15.273Z,5.50
2022-12-25T14:34:43.644Z,6.00
2022-12-25T14:37:16.570Z,5.72
2022-12-25T14:39:47.552Z,6.75
2022-12-25T14:42:26.014Z,7.10
2022-12-25T14:45:01.204Z,7.53
2022-12-25T14:47:27.966Z,7.60
2022-12-25T14:49:54.731Z,7.32
2022-12-25T14:52:23.196Z,7.53
2022-12-25T14:54:56.563Z,7.45
2022-12-25T14:57:29.673Z,6.72
2022-12-25T14:59:58.846Z,8.70
2022-12-25T15:02:25.821Z,7.82
2022-12-25T15:04:53.408Z,7.85
2022-12-25T15:07:30.965Z,7.72
2022-12-25T15:10:27.136Z,7.85
2022-12-25T15:12:43.839Z,7.15
2022-12-25T15:15:10.349Z,7.63
2022-12-25T15:17:38.141Z,8.10
2022-12-25T15:20:05.438Z,8.15
2022-12-25T15:22:54.287Z,8.43
2022-12-25T15:25:21.753Z,8.98
2022-12-25T15:27:48.581Z,8.15
2022-12-25T15:30:15.072Z,8.95
2022-12-25T15:32:41.429Z,8.57
2022-12-25T15:35:15.331Z,8.55
2022-12-25T15:37:41.779Z,9.38
2022-12-25T15:40:11.301Z,9.07
2022-12-25T15:42:38.207Z,9.48
2022-12-25T15:45:04.836Z,9.13
2022-12-25T15:47:32.529Z,9.53
2022-12-25T15:49:58.879Z,9.25
2022-12-25T15:52:25.228Z,9.18
2022-12-25T15:54:54.094Z,9.63
2022-12-25T15:57:22.827Z,9.90
2022-12-25T15:59:49.291Z,9.60
2022-12-25T16:02:18.901Z,10.00
2022-12-25T16:04:45.558Z,9.63
2022-12-25T16:07:17.103Z,9.38
2022-12-25T16:09:43.839Z,9.30
2022-12-25T16:12:10.294Z,9.25
2022-12-25T16:14:37.191Z,8.73
2022-12-25T16:17:04.507Z,8.40
2022-12-25T16:19:31.198Z,9.40
2022-12-25T16:21:57.528Z,8.93
2022-12-25T16:24:24.039Z,8.05
2022-12-25T16:26:50.389Z,8.55
2022-12-25T16:29:16.834Z,8.10
2022-12-25T16:31:43.225Z,9.07
2022-12-25T16:34:10.110Z,8.48
2022-12-25T16:36:37.067Z,9.07
2022-12-25T16:39:04.112Z,8.65
2022-12-25T16:41:30.716Z,8.57
2022-12-25T16:43:57.082Z,7.82
2022-12-25T16:46:23.628Z,8.60
2022-12-25T16:48:50.307Z,8.37
2022-12-25T16:51:18.990Z,8.40
2022-12-25T16:53:45.886Z,8.48
2022-12-25T16:56:25.371Z,8.13
2022-12-25T16:58:52.048Z,9.25
2022-12-25T17:01:20.685Z,9.27
2022-12-25T17:03:47.863Z,8.88
2022-12-25T17:06:16.990Z,10.10
2022-12-25T17:08:43.519Z,9.35
2022-12-25T17:11:10.449Z,8.75
2022-12-25T17:13:36.939Z,9.07
2022-12-25T17:16:18.582Z,9.48
2022-12-25T17:18:45.327Z,9.18
2022-12-25T17:21:12.118Z,9.37
2022-12-25T17:23:38.843Z,8.90
2022-12-25T17:26:06.228Z,9.30
2022-12-25T17:28:34.582Z,10.32
2022-12-25T17:31:05.138Z,8.98
2022-12-25T17:33:31.792Z,10.27
2022-12-25T17:36:06.237Z,10.93
2022-12-25T17:38:33.981Z,9.32
2022-12-25T17:41:02.315Z,10.52
2022-12-25T17:43:28.846Z,9.60
2022-12-25T17:45:55.235Z,9.57
2022-12-25T17:48:21.631Z,9.77
2022-12-25T17:50:48.365Z,10.48
2022-12-25T17:53:14.782Z,8.90
2022-12-25T17:55:41.394Z,9.77
2022-12-25T17:58:08.467Z,9.23
2022-12-25T18:00:35.783Z,9.57
2022-12-25T18:03:09.083Z,10.13
2022-12-25T18:05:37.778Z,10.35
2022-12-25T18:08:05.256Z,10.10
2022-12-25T18:13:05.486Z,9.38
2022-12-25T18:15:31.934Z,10.10
2022-12-25T18:17:58.348Z,9.25
2022-12-25T18:20:24.710Z,9.40
2022-12-25T18:22:51.158Z,9.32
2022-12-25T18:25:17.575Z,9.82
2022-12-25T18:27:43.970Z,10.93
2022-12-25T18:30:10.610Z,9.25
2022-12-25T18:32:37.077Z,8.83
2022-12-25T18:35:03.570Z,9.32
2022-12-25T18:37:34.396Z,9.40
2022-12-25T18:40:05.133Z,9.15
2022-12-25T18:42:40.782Z,8.93
2022-12-25T18:45:11.006Z,9.43
2022-12-25T18:47:37.421Z,9.27
2022-12-25T18:50:04.354Z,9.23
2022-12-25T18:52:49.304Z,9.10
2022-12-25T18:55:17.549Z,8.75
2022-12-25T18:57:43.955Z,9.77
2022-12-25T19:00:10.822Z,9.27
2022-12-25T19:02:37.412Z,9.73
2022-12-25T19:05:04.017Z,9.57
2022-12-25T19:07:30.353Z,9.43
2022-12-25T19:09:56.717Z,9.30
2022-12-25T19:12:23.876Z,9.35
2022-12-25T19:14:50.347Z,9.20
2022-12-25T19:17:17.815Z,8.88
2022-12-25T19:22:10.742Z,8.37
2022-12-25T19:24:37.282Z,9.05
2022-12-25T19:27:04.185Z,9.45
2022-12-25T19:29:31.251Z,8.75
2022-12-25T19:31:58.015Z,8.85
2022-12-25T19:34:25.855Z,9.40
2022-12-25T19:36:52.258Z,9.52
2022-12-25T19:39:19.125Z,9.13
2022-12-25T19:41:45.486Z,9.80
2022-12-25T19:44:11.885Z,9.20
2022-12-25T19:46:40.698Z,9.23
2022-12-25T19:49:14.305Z,9.15
2022-12-25T19:51:43.796Z,8.95
2022-12-25T19:54:13.211Z,8.55
2022-12-25T19:56:40.557Z,8.73
2022-12-25T19:59:06.967Z,8.27
2022-12-25T20:01:33.492Z,9.02
2022-12-25T20:04:00.051Z,9.23
2022-12-25T20:06:32.608Z,8.95
2022-12-25T20:09:21.266Z,8.48
2022-12-25T20:11:48.580Z,10.13
2022-12-25T20:14:16.442Z,9.70
2022-12-25T20:16:44.168Z,10.18
2022-12-25T20:19:13.759Z,9.40
2022-12-25T20:21:40.553Z,10.30
2022-12-25T20:24:10.423Z,10.02
2022-12-25T20:26:38.830Z,9.85
2022-12-25T20:29:05.544Z,9.93
2022-12-25T20:31:34.004Z,10.07
2022-12-25T20:34:05.460Z,9.98
2022-12-25T20:36:36.736Z,10.35
2022-12-25T20:39:05.528Z,9.45
2022-12-25T20:41:32.121Z,10.52
2022-12-25T20:43:58.575Z,9.93
2022-12-25T20:46:26.061Z,9.80
2022-12-25T20:51:23.059Z,10.27
2022-12-25T20:53:50.357Z,9.40
2022-12-25T20:56:18.781Z,9.32
2022-12-25T20:58:45.818Z,9.73
2022-12-25T21:01:17.514Z,9.73
2022-12-25T21:03:44.655Z,9.27
2022-12-25T21:06:11.980Z,9.48
2022-12-25T21:08:39.106Z,9.48
2022-12-25T21:11:05.672Z,9.50
2022-12-25T21:13:34.475Z,9.25
2022-12-25T21:16:01.174Z,9.30
2022-12-25T21:18:28.236Z,9.60
2022-12-25T21:20:57.745Z,9.35
2022-12-25T21:23:28.116Z,9.07
2022-12-25T21:25:57.082Z,8.80
2022-12-25T21:28:24.318Z,9.25
2022-12-25T21:30:50.682Z,9.13
2022-12-25T21:33:35.743Z,10.32
2022-12-25T21:36:10.098Z,9.70
2022-12-25T21:38:36.977Z,10.00
2022-12-25T21:41:10.336Z,9.88
2022-12-25T21:43:38.420Z,9.82
2022-12-25T21:46:09.810Z,9.10
2022-12-25T21:48:41.323Z,9.98
2022-12-25T21:51:31.285Z,9.75
2022-12-25T21:53:58.415Z,10.18
2022-12-25T21:56:25.548Z,9.38
2022-12-25T21:58:51.940Z,9.75
2022-12-25T22:01:18.419Z,9.57
2022-12-25T22:03:45.182Z,9.67
2022-12-25T22:06:31.539Z,9.10
2022-12-25T22:08:58.047Z,9.48
2022-12-25T22:11:44.761Z,9.25
2022-12-25T22:14:52.657Z,9.90
2022-12-25T22:17:49.848Z,9.38
2022-12-25T22:20:22.429Z,9.18
2022-12-25T22:22:49.129Z,8.65
2022-12-25T22:25:16.360Z,8.52
2022-12-25T22:27:44.492Z,8.77
2022-12-25T22:30:17.233Z,8.35
2022-12-25T22:32:44.032Z,8.35
2022-12-25T22:35:12.220Z,8.80
2022-12-25T22:37:39.443Z,8.95
2022-12-25T22:40:07.436Z,9.07
2022-12-25T22:42:33.854Z,8.73
2022-12-25T22:45:00.247Z,8.50
2022-12-25T22:47:26.660Z,8.50
2022-12-25T22:49:53.046Z,8.55
2022-12-25T22:52:19.456Z,8.35
2022-12-25T22:54:45.855Z,7.53
2022-12-25T22:57:12.243Z,7.97
2022-12-25T22:59:38.602Z,8.02
2022-12-25T23:02:05.166Z,7.88
2022-12-25T23:04:32.067Z,8.17
2022-12-25T23:06:58.585Z,8.00
2022-12-25T23:09:27.953Z,8.45
2022-12-25T23:11:58.841Z,8.02
2022-12-25T23:14:41.916Z,8.68
2022-12-25T23:17:32.000Z,8.07
2022-12-25T23:20:18.925Z,8.05
2022-12-25T23:23:04.682Z,8.55
2022-12-25T23:25:49.737Z,8.63
2022-12-25T23:28:36.177Z,8.38
2022-12-25T23:31:02.686Z,8.70
2022-12-25T23:33:29.218Z,8.82
2022-12-25T23:35:55.702Z,9.15
2022-12-25T23:38:22.209Z,9.13
2022-12-25T23:40:48.577Z,8.90
2022-12-25T23:43:15.041Z,9.02
2022-12-25T23:45:41.477Z,8.35
2022-12-25T23:48:07.851Z,9.20
2022-12-25T23:50:34.227Z,8.27
2022-12-25T23:53:00.578Z,7.90
2022-12-25T23:55:26.950Z,8.43
2022-12-25T23:57:53.322Z,8.57
